sensor_id;sensor_type;location;lat;lon;timestamp;temperature;humidity
11043;DHT22;5574;48.786;10.120;2022-11-20T00:00:17;6.90;99.90
11043;DHT22;5574;48.786;10.120;2022-11-20T00:02:44;7.00;99.90
11043;DHT22;5574;48.786;10.120;2022-11-20T00:05:10;6.90;99.90
11043;DHT22;5574;48.786;10.120;2022-11-20T00:07:37;6.90;99.90
11043;DHT22;5574;48.786;10.120;2022-11-20T00:10:06;7.00;99.90
11043;DHT22;5574;48.786;10.120;2022-11-20T00:12:32;6.90;99.90
11043;DHT22;5574;48.786;10.120;2022-11-20T00:14:59;6.90;99.90
11043;DHT22;5574;48.786;10.120;2022-11-20T00:17:26;6.90;99.90
11043;DHT22;5574;48.786;10.120;2022-11-20T00:19:53;6.80;99.90
11043;DHT22;5574;48.786;10.120;2022-11-20T00:22:19;6.80;99.90
11043;DHT22;5574;48.786;10.120;2022-11-20T00:24:46;6.80;99.90
11043;DHT22;5574;48.786;10.120;2022-11-20T00:27:14;6.80;99.90
11043;DHT22;5574;48.786;10.120;2022-11-20T00:29:41;6.80;99.90
11043;DHT22;5574;48.786;10.120;2022-11-20T00:32:08;6.80;99.90
11043;DHT22;5574;48.786;10.120;2022-11-20T00:34:34;6.80;99.90
11043;DHT22;5574;48.786;10.120;2022-11-20T00:37:01;6.80;99.90
11043;DHT22;5574;48.786;10.120;2022-11-20T00:39:28;6.80;99.90
11043;DHT22;5574;48.786;10.120;2022-11-20T00:41:54;6.80;99.90
11043;DHT22;5574;48.786;10.120;2022-11-20T00:44:22;6.80;99.90
11043;DHT22;5574;48.786;10.120;2022-11-20T00:46:49;6.80;99.90
11043;DHT22;5574;48.786;10.120;2022-11-20T00:49:16;6.80;99.90
11043;DHT22;5574;48.786;10.120;2022-11-20T00:51:42;6.80;99.90
11043;DHT22;5574;48.786;10.120;2022-11-20T00:54:09;6.80;99.90
11043;DHT22;5574;48.786;10.120;2022-11-20T00:56:36;6.80;99.90
11043;DHT22;5574;48.786;10.120;2022-11-20T00:59:03;6.80;99.90
11043;DHT22;5574;48.786;10.120;2022-11-20T01:01:31;6.70;99.90
11043;DHT22;5574;48.786;10.120;2022-11-20T01:03:59;6.70;99.90
11043;DHT22;5574;48.786;10.120;2022-11-20T01:06:28;6.70;99.90
11043;DHT22;5574;48.786;10.120;2022-11-20T01:08:57;6.70;99.90
11043;DHT22;5574;48.786;10.120;2022-11-20T01:11:27;6.70;99.90
11043;DHT22;5574;48.786;10.120;2022-11-20T01:13:57;6.60;99.90
11043;DHT22;5574;48.786;10.120;2022-11-20T01:16:26;6.60;99.90
11043;DHT22;5574;48.786;10.120;2022-11-20T01:18:56;6.60;99.90
11043;DHT22;5574;48.786;10.120;2022-11-20T01:21:25;6.60;99.90
11043;DHT22;5574;48.786;10.120;2022-11-20T01:23:53;6.60;99.90
11043;DHT22;5574;48.786;10.120;2022-11-20T01:26:21;6.60;99.90
11043;DHT22;5574;48.786;10.120;2022-11-20T01:28:49;6.60;99.90
11043;DHT22;5574;48.786;10.120;2022-11-20T01:31:18;6.60;99.90
11043;DHT22;5574;48.786;10.120;2022-11-20T01:33:47;6.70;99.90
11043;DHT22;5574;48.786;10.120;2022-11-20T01:36:16;6.70;99.90
11043;DHT22;5574;48.786;10.120;2022-11-20T01:38:44;6.70;99.90
11043;DHT22;5574;48.786;10.120;2022-11-20T01:41:12;6.70;99.90
11043;DHT22;5574;48.786;10.120;2022-11-20T01:43:59;6.70;99.90
11043;DHT22;5574;48.786;10.120;2022-11-20T01:46:25;6.70;99.90
11043;DHT22;5574;48.786;10.120;2022-11-20T01:48:55;6.60;99.90
11043;DHT22;5574;48.786;10.120;2022-11-20T01:51:28;6.70;99.90
11043;DHT22;5574;48.786;10.120;2022-11-20T01:53:59;6.70;99.90
11043;DHT22;5574;48.786;10.120;2022-11-20T01:56:28;6.70;99.90
11043;DHT22;5574;48.786;10.120;2022-11-20T01:58:59;6.70;99.90
11043;DHT22;5574;48.786;10.120;2022-11-20T02:01:28;6.70;99.90
11043;DHT22;5574;48.786;10.120;2022-11-20T02:03:55;6.70;99.90
11043;DHT22;5574;48.786;10.120;2022-11-20T02:06:24;6.70;99.90
11043;DHT22;5574;48.786;10.120;2022-11-20T02:08:53;6.70;99.90
11043;DHT22;5574;48.786;10.120;2022-11-20T02:11:21;6.70;99.90
11043;DHT22;5574;48.786;10.120;2022-11-20T02:13:48;6.70;99.90
11043;DHT22;5574;48.786;10.120;2022-11-20T02:16:21;6.70;99.90
11043;DHT22;5574;48.786;10.120;2022-11-20T02:18:49;6.70;99.90
11043;DHT22;5574;48.786;10.120;2022-11-20T02:21:27;6.70;99.90
11043;DHT22;5574;48.786;10.120;2022-11-20T02:24:00;6.80;99.90
11043;DHT22;5574;48.786;10.120;2022-11-20T02:26:29;6.70;99.90
11043;DHT22;5574;48.786;10.120;2022-11-20T02:28:57;6.70;99.90
11043;DHT22;5574;48.786;10.120;2022-11-20T02:31:24;6.70;99.90
11043;DHT22;5574;48.786;10.120;2022-11-20T02:33:55;6.70;99.90
11043;DHT22;5574;48.786;10.120;2022-11-20T02:36:22;6.70;99.90
11043;DHT22;5574;48.786;10.120;2022-11-20T02:38:50;6.70;99.90
11043;DHT22;5574;48.786;10.120;2022-11-20T02:41:18;6.70;99.90
11043;DHT22;5574;48.786;10.120;2022-11-20T02:43:45;6.70;99.90
11043;DHT22;5574;48.786;10.120;2022-11-20T02:46:12;6.70;99.90
11043;DHT22;5574;48.786;10.120;2022-11-20T02:48:38;6.70;99.90
11043;DHT22;5574;48.786;10.120;2022-11-20T02:51:05;6.80;99.90
11043;DHT22;5574;48.786;10.120;2022-11-20T02:53:32;6.70;99.90
11043;DHT22;5574;48.786;10.120;2022-11-20T02:55:58;6.70;99.90
11043;DHT22;5574;48.786;10.120;2022-11-20T02:58:26;6.80;99.90
11043;DHT22;5574;48.786;10.120;2022-11-20T03:00:53;6.80;99.90
11043;DHT22;5574;48.786;10.120;2022-11-20T03:03:20;6.70;99.90
11043;DHT22;5574;48.786;10.120;2022-11-20T03:05:46;6.80;99.90
11043;DHT22;5574;48.786;10.120;2022-11-20T03:08:13;6.80;99.90
11043;DHT22;5574;48.786;10.120;2022-11-20T03:10:40;6.80;99.90
11043;DHT22;5574;48.786;10.120;2022-11-20T03:13:07;6.70;99.90
11043;DHT22;5574;48.786;10.120;2022-11-20T03:15:37;6.70;99.90
11043;DHT22;5574;48.786;10.120;2022-11-20T03:18:04;6.70;99.90
11043;DHT22;5574;48.786;10.120;2022-11-20T03:20:32;6.70;99.90
11043;DHT22;5574;48.786;10.120;2022-11-20T03:22:59;6.70;99.90
11043;DHT22;5574;48.786;10.120;2022-11-20T03:25:26;6.80;99.90
11043;DHT22;5574;48.786;10.120;2022-11-20T03:27:53;6.80;99.90
11043;DHT22;5574;48.786;10.120;2022-11-20T03:30:20;6.70;99.90
11043;DHT22;5574;48.786;10.120;2022-11-20T03:32:48;6.70;99.90
11043;DHT22;5574;48.786;10.120;2022-11-20T03:35:15;6.80;99.90
11043;DHT22;5574;48.786;10.120;2022-11-20T03:37:41;6.80;99.90
11043;DHT22;5574;48.786;10.120;2022-11-20T03:40:09;6.80;99.90
11043;DHT22;5574;48.786;10.120;2022-11-20T03:42:36;6.80;99.90
11043;DHT22;5574;48.786;10.120;2022-11-20T03:45:11;6.80;99.90
11043;DHT22;5574;48.786;10.120;2022-11-20T03:47:38;6.80;99.90
11043;DHT22;5574;48.786;10.120;2022-11-20T03:50:07;6.80;99.90
11043;DHT22;5574;48.786;10.120;2022-11-20T03:52:34;6.80;99.90
11043;DHT22;5574;48.786;10.120;2022-11-20T03:55:01;6.80;99.90
11043;DHT22;5574;48.786;10.120;2022-11-20T03:57:28;6.80;99.90
11043;DHT22;5574;48.786;10.120;2022-11-20T03:59:54;6.80;99.90
11043;DHT22;5574;48.786;10.120;2022-11-20T04:02:21;6.80;99.90
11043;DHT22;5574;48.786;10.120;2022-11-20T04:04:48;6.80;99.90
11043;DHT22;5574;48.786;10.120;2022-11-20T04:07:16;6.80;99.90
11043;DHT22;5574;48.786;10.120;2022-11-20T04:09:43;6.70;99.90
11043;DHT22;5574;48.786;10.120;2022-11-20T04:12:09;6.80;99.90
11043;DHT22;5574;48.786;10.120;2022-11-20T04:14:36;6.70;99.90
11043;DHT22;5574;48.786;10.120;2022-11-20T04:17:03;6.60;99.90
11043;DHT22;5574;48.786;10.120;2022-11-20T04:19:30;6.60;99.90
11043;DHT22;5574;48.786;10.120;2022-11-20T04:21:56;6.60;99.90
11043;DHT22;5574;48.786;10.120;2022-11-20T04:24:24;6.60;99.90
11043;DHT22;5574;48.786;10.120;2022-11-20T04:26:52;6.60;99.90
11043;DHT22;5574;48.786;10.120;2022-11-20T04:29:19;6.60;99.90
11043;DHT22;5574;48.786;10.120;2022-11-20T04:31:45;6.50;99.90
11043;DHT22;5574;48.786;10.120;2022-11-20T04:34:12;6.50;99.90
11043;DHT22;5574;48.786;10.120;2022-11-20T04:36:39;6.50;99.90
11043;DHT22;5574;48.786;10.120;2022-11-20T04:39:06;6.50;99.90
11043;DHT22;5574;48.786;10.120;2022-11-20T04:41:35;6.50;99.90
11043;DHT22;5574;48.786;10.120;2022-11-20T04:44:04;6.50;99.90
11043;DHT22;5574;48.786;10.120;2022-11-20T04:46:33;6.40;99.90
11043;DHT22;5574;48.786;10.120;2022-11-20T04:49:00;6.40;99.90
11043;DHT22;5574;48.786;10.120;2022-11-20T04:51:27;6.30;99.90
11043;DHT22;5574;48.786;10.120;2022-11-20T04:53:54;6.30;99.90
11043;DHT22;5574;48.786;10.120;2022-11-20T04:56:21;6.20;99.90
11043;DHT22;5574;48.786;10.120;2022-11-20T04:58:49;6.20;99.90
11043;DHT22;5574;48.786;10.120;2022-11-20T05:01:18;6.20;99.90
11043;DHT22;5574;48.786;10.120;2022-11-20T05:03:45;6.10;99.90
11043;DHT22;5574;48.786;10.120;2022-11-20T05:06:13;6.10;99.90
11043;DHT22;5574;48.786;10.120;2022-11-20T05:08:41;6.10;99.90
11043;DHT22;5574;48.786;10.120;2022-11-20T05:11:12;6.10;99.90
11043;DHT22;5574;48.786;10.120;2022-11-20T05:13:40;6.10;99.90
11043;DHT22;5574;48.786;10.120;2022-11-20T05:16:10;6.00;99.90
11043;DHT22;5574;48.786;10.120;2022-11-20T05:18:38;6.10;99.90
11043;DHT22;5574;48.786;10.120;2022-11-20T05:21:05;6.00;99.90
11043;DHT22;5574;48.786;10.120;2022-11-20T05:23:33;6.00;99.90
11043;DHT22;5574;48.786;10.120;2022-11-20T05:26:00;6.00;99.90
11043;DHT22;5574;48.786;10.120;2022-11-20T05:28:28;6.00;99.90
11043;DHT22;5574;48.786;10.120;2022-11-20T05:30:55;6.00;99.90
11043;DHT22;5574;48.786;10.120;2022-11-20T05:33:23;6.00;99.90
11043;DHT22;5574;48.786;10.120;2022-11-20T05:35:50;6.00;99.90
11043;DHT22;5574;48.786;10.120;2022-11-20T05:38:17;6.00;99.90
11043;DHT22;5574;48.786;10.120;2022-11-20T05:40:43;6.00;99.90
11043;DHT22;5574;48.786;10.120;2022-11-20T05:43:10;6.00;99.90
11043;DHT22;5574;48.786;10.120;2022-11-20T05:45:37;6.00;99.90
11043;DHT22;5574;48.786;10.120;2022-11-20T05:48:04;6.00;99.90
11043;DHT22;5574;48.786;10.120;2022-11-20T05:50:32;6.10;99.90
11043;DHT22;5574;48.786;10.120;2022-11-20T05:52:58;6.00;99.90
11043;DHT22;5574;48.786;10.120;2022-11-20T05:55:26;6.00;99.90
11043;DHT22;5574;48.786;10.120;2022-11-20T05:57:53;6.10;99.90
11043;DHT22;5574;48.786;10.120;2022-11-20T06:00:20;6.00;99.90
11043;DHT22;5574;48.786;10.120;2022-11-20T06:02:47;6.10;99.90
11043;DHT22;5574;48.786;10.120;2022-11-20T06:05:14;6.10;99.90
11043;DHT22;5574;48.786;10.120;2022-11-20T06:07:42;6.10;99.90
11043;DHT22;5574;48.786;10.120;2022-11-20T06:10:09;6.10;99.90
11043;DHT22;5574;48.786;10.120;2022-11-20T06:12:36;6.20;99.90
11043;DHT22;5574;48.786;10.120;2022-11-20T06:15:03;6.20;99.90
11043;DHT22;5574;48.786;10.120;2022-11-20T06:17:30;6.20;99.90
11043;DHT22;5574;48.786;10.120;2022-11-20T06:19:57;6.20;99.90
11043;DHT22;5574;48.786;10.120;2022-11-20T06:22:23;6.20;99.90
11043;DHT22;5574;48.786;10.120;2022-11-20T06:24:51;6.10;99.90
11043;DHT22;5574;48.786;10.120;2022-11-20T06:27:18;6.20;99.90
11043;DHT22;5574;48.786;10.120;2022-11-20T06:29:45;6.20;99.90
11043;DHT22;5574;48.786;10.120;2022-11-20T06:32:12;6.20;99.90
11043;DHT22;5574;48.786;10.120;2022-11-20T06:34:39;6.20;99.90
11043;DHT22;5574;48.786;10.120;2022-11-20T06:37:05;6.20;99.90
11043;DHT22;5574;48.786;10.120;2022-11-20T06:39:32;6.20;99.90
11043;DHT22;5574;48.786;10.120;2022-11-20T06:42:00;6.20;99.90
11043;DHT22;5574;48.786;10.120;2022-11-20T06:44:27;6.10;99.90
11043;DHT22;5574;48.786;10.120;2022-11-20T06:46:54;6.10;99.90
11043;DHT22;5574;48.786;10.120;2022-11-20T06:49:20;6.10;99.90
11043;DHT22;5574;48.786;10.120;2022-11-20T06:51:47;6.20;99.90
11043;DHT22;5574;48.786;10.120;2022-11-20T06:54:14;6.10;99.90
11043;DHT22;5574;48.786;10.120;2022-11-20T06:56:40;6.10;99.90
11043;DHT22;5574;48.786;10.120;2022-11-20T06:59:08;6.10;99.90
11043;DHT22;5574;48.786;10.120;2022-11-20T07:01:35;6.10;99.90
11043;DHT22;5574;48.786;10.120;2022-11-20T07:04:02;6.10;99.90
11043;DHT22;5574;48.786;10.120;2022-11-20T07:06:29;6.10;99.90
11043;DHT22;5574;48.786;10.120;2022-11-20T07:08:56;6.10;99.90
11043;DHT22;5574;48.786;10.120;2022-11-20T07:11:22;6.10;99.90
11043;DHT22;5574;48.786;10.120;2022-11-20T07:13:49;6.10;99.90
11043;DHT22;5574;48.786;10.120;2022-11-20T07:16:17;6.10;99.90
11043;DHT22;5574;48.786;10.120;2022-11-20T07:18:44;6.10;99.90
11043;DHT22;5574;48.786;10.120;2022-11-20T07:21:11;6.10;99.90
11043;DHT22;5574;48.786;10.120;2022-11-20T07:23:38;6.20;99.90
11043;DHT22;5574;48.786;10.120;2022-11-20T07:26:05;6.20;99.90
11043;DHT22;5574;48.786;10.120;2022-11-20T07:28:33;6.20;99.90
11043;DHT22;5574;48.786;10.120;2022-11-20T07:31:00;6.10;99.90
11043;DHT22;5574;48.786;10.120;2022-11-20T07:33:28;6.10;99.90
11043;DHT22;5574;48.786;10.120;2022-11-20T07:35:55;6.10;99.90
11043;DHT22;5574;48.786;10.120;2022-11-20T07:38:24;6.10;99.90
11043;DHT22;5574;48.786;10.120;2022-11-20T07:40:53;6.10;99.90
11043;DHT22;5574;48.786;10.120;2022-11-20T07:43:20;6.10;99.90
11043;DHT22;5574;48.786;10.120;2022-11-20T07:45:47;6.10;99.90
11043;DHT22;5574;48.786;10.120;2022-11-20T07:48:13;6.10;99.90
11043;DHT22;5574;48.786;10.120;2022-11-20T07:50:41;6.10;99.90
11043;DHT22;5574;48.786;10.120;2022-11-20T07:53:08;6.20;99.90
11043;DHT22;5574;48.786;10.120;2022-11-20T07:55:35;6.10;99.90
11043;DHT22;5574;48.786;10.120;2022-11-20T07:58:01;6.20;99.90
11043;DHT22;5574;48.786;10.120;2022-11-20T08:00:28;6.20;99.90
11043;DHT22;5574;48.786;10.120;2022-11-20T08:02:55;6.10;99.90
11043;DHT22;5574;48.786;10.120;2022-11-20T08:05:22;6.20;99.90
11043;DHT22;5574;48.786;10.120;2022-11-20T08:07:51;6.20;99.90
11043;DHT22;5574;48.786;10.120;2022-11-20T08:10:17;6.20;99.90
11043;DHT22;5574;48.786;10.120;2022-11-20T08:12:45;6.20;99.90
11043;DHT22;5574;48.786;10.120;2022-11-20T08:15:30;6.20;99.90
11043;DHT22;5574;48.786;10.120;2022-11-20T08:18:01;6.20;99.90
11043;DHT22;5574;48.786;10.120;2022-11-20T08:20:28;6.20;99.90
11043;DHT22;5574;48.786;10.120;2022-11-20T08:22:59;6.20;99.90
11043;DHT22;5574;48.786;10.120;2022-11-20T08:25:27;6.30;99.90
11043;DHT22;5574;48.786;10.120;2022-11-20T08:27:53;6.30;99.90
11043;DHT22;5574;48.786;10.120;2022-11-20T08:30:20;6.30;99.90
11043;DHT22;5574;48.786;10.120;2022-11-20T08:32:47;6.30;99.90
11043;DHT22;5574;48.786;10.120;2022-11-20T08:35:14;6.30;99.90
11043;DHT22;5574;48.786;10.120;2022-11-20T08:37:40;6.30;99.90
11043;DHT22;5574;48.786;10.120;2022-11-20T08:40:11;6.30;99.90
11043;DHT22;5574;48.786;10.120;2022-11-20T08:42:46;6.30;99.90
11043;DHT22;5574;48.786;10.120;2022-11-20T08:45:12;6.30;99.90
11043;DHT22;5574;48.786;10.120;2022-11-20T08:47:39;6.40;99.90
11043;DHT22;5574;48.786;10.120;2022-11-20T08:50:07;6.40;99.90
11043;DHT22;5574;48.786;10.120;2022-11-20T08:52:34;6.40;99.90
11043;DHT22;5574;48.786;10.120;2022-11-20T08:55:01;6.50;99.90
11043;DHT22;5574;48.786;10.120;2022-11-20T08:57:31;6.50;99.90
11043;DHT22;5574;48.786;10.120;2022-11-20T08:59:58;6.50;99.90
11043;DHT22;5574;48.786;10.120;2022-11-20T09:02:25;6.50;99.90
11043;DHT22;5574;48.786;10.120;2022-11-20T09:04:52;6.50;99.90
11043;DHT22;5574;48.786;10.120;2022-11-20T09:07:19;6.50;99.90
11043;DHT22;5574;48.786;10.120;2022-11-20T09:09:46;6.40;99.90
11043;DHT22;5574;48.786;10.120;2022-11-20T09:12:13;6.40;99.90
11043;DHT22;5574;48.786;10.120;2022-11-20T09:14:41;6.40;99.90
11043;DHT22;5574;48.786;10.120;2022-11-20T09:17:09;6.40;99.90
11043;DHT22;5574;48.786;10.120;2022-11-20T09:19:38;6.30;99.90
11043;DHT22;5574;48.786;10.120;2022-11-20T09:22:05;6.30;99.90
11043;DHT22;5574;48.786;10.120;2022-11-20T09:24:32;6.30;99.90
11043;DHT22;5574;48.786;10.120;2022-11-20T09:27:02;6.30;99.90
11043;DHT22;5574;48.786;10.120;2022-11-20T09:29:28;6.30;99.90
11043;DHT22;5574;48.786;10.120;2022-11-20T09:31:56;6.20;99.90
11043;DHT22;5574;48.786;10.120;2022-11-20T09:34:23;6.20;99.90
11043;DHT22;5574;48.786;10.120;2022-11-20T09:36:50;6.50;99.90
11043;DHT22;5574;48.786;10.120;2022-11-20T09:39:16;6.90;99.90
11043;DHT22;5574;48.786;10.120;2022-11-20T09:42:02;7.20;99.90
11043;DHT22;5574;48.786;10.120;2022-11-20T09:44:40;7.50;99.90
11043;DHT22;5574;48.786;10.120;2022-11-20T09:47:22;7.60;99.90
11043;DHT22;5574;48.786;10.120;2022-11-20T09:49:59;7.70;99.90
11043;DHT22;5574;48.786;10.120;2022-11-20T09:52:37;7.90;99.90
11043;DHT22;5574;48.786;10.120;2022-11-20T09:55:09;7.90;99.90
11043;DHT22;5574;48.786;10.120;2022-11-20T09:57:39;8.00;99.90
11043;DHT22;5574;48.786;10.120;2022-11-20T10:00:11;8.00;99.90
11043;DHT22;5574;48.786;10.120;2022-11-20T10:02:44;7.90;99.90
11043;DHT22;5574;48.786;10.120;2022-11-20T10:05:15;8.00;99.90
11043;DHT22;5574;48.786;10.120;2022-11-20T10:07:47;8.00;99.90
11043;DHT22;5574;48.786;10.120;2022-11-20T10:10:16;8.00;99.90
11043;DHT22;5574;48.786;10.120;2022-11-20T10:12:57;7.90;99.90
11043;DHT22;5574;48.786;10.120;2022-11-20T10:15:33;7.90;99.90
11043;DHT22;5574;48.786;10.120;2022-11-20T10:18:16;7.90;99.90
11043;DHT22;5574;48.786;10.120;2022-11-20T10:20:54;7.90;99.90
11043;DHT22;5574;48.786;10.120;2022-11-20T10:23:35;7.90;99.90
11043;DHT22;5574;48.786;10.120;2022-11-20T10:26:17;7.90;99.90
11043;DHT22;5574;48.786;10.120;2022-11-20T10:29:00;8.00;99.90
11043;DHT22;5574;48.786;10.120;2022-11-20T10:31:34;7.90;99.90
11043;DHT22;5574;48.786;10.120;2022-11-20T10:34:06;7.90;99.90
11043;DHT22;5574;48.786;10.120;2022-11-20T10:36:36;7.90;99.90
11043;DHT22;5574;48.786;10.120;2022-11-20T10:39:14;7.90;99.90
11043;DHT22;5574;48.786;10.120;2022-11-20T10:41:44;7.90;99.90
11043;DHT22;5574;48.786;10.120;2022-11-20T10:44:16;7.90;99.90
11043;DHT22;5574;48.786;10.120;2022-11-20T10:47:05;7.80;99.90
11043;DHT22;5574;48.786;10.120;2022-11-20T10:49:36;7.70;99.90
11043;DHT22;5574;48.786;10.120;2022-11-20T10:52:09;7.70;99.90
11043;DHT22;5574;48.786;10.120;2022-11-20T10:54:43;7.70;99.90
11043;DHT22;5574;48.786;10.120;2022-11-20T10:57:24;7.70;99.90
11043;DHT22;5574;48.786;10.120;2022-11-20T11:00:00;7.70;99.90
11043;DHT22;5574;48.786;10.120;2022-11-20T11:02:33;7.70;99.90
11043;DHT22;5574;48.786;10.120;2022-11-20T11:05:11;7.60;99.90
11043;DHT22;5574;48.786;10.120;2022-11-20T11:07:39;7.70;99.90
11043;DHT22;5574;48.786;10.120;2022-11-20T11:12:43;7.70;99.90
11043;DHT22;5574;48.786;10.120;2022-11-20T11:15:13;7.80;99.90
11043;DHT22;5574;48.786;10.120;2022-11-20T11:17:47;7.80;99.90
11043;DHT22;5574;48.786;10.120;2022-11-20T11:20:17;7.80;99.90
11043;DHT22;5574;48.786;10.120;2022-11-20T11:22:46;7.80;99.90
11043;DHT22;5574;48.786;10.120;2022-11-20T11:25:28;7.70;99.90
11043;DHT22;5574;48.786;10.120;2022-11-20T11:27:58;7.70;99.90
11043;DHT22;5574;48.786;10.120;2022-11-20T11:30:26;7.70;99.90
11043;DHT22;5574;48.786;10.120;2022-11-20T11:33:05;7.70;99.90
11043;DHT22;5574;48.786;10.120;2022-11-20T11:35:43;7.70;99.90
11043;DHT22;5574;48.786;10.120;2022-11-20T11:38:12;7.70;99.90
11043;DHT22;5574;48.786;10.120;2022-11-20T11:40:40;7.70;99.90
11043;DHT22;5574;48.786;10.120;2022-11-20T11:43:18;7.60;99.90
11043;DHT22;5574;48.786;10.120;2022-11-20T11:46:19;7.60;99.90
11043;DHT22;5574;48.786;10.120;2022-11-20T11:48:55;7.60;99.90
11043;DHT22;5574;48.786;10.120;2022-11-20T11:51:26;7.60;99.90
11043;DHT22;5574;48.786;10.120;2022-11-20T11:53:55;7.70;99.90
11043;DHT22;5574;48.786;10.120;2022-11-20T11:56:23;7.70;99.90
11043;DHT22;5574;48.786;10.120;2022-11-20T11:58:51;7.80;99.90
11043;DHT22;5574;48.786;10.120;2022-11-20T12:01:26;7.80;99.90
11043;DHT22;5574;48.786;10.120;2022-11-20T12:04:00;7.90;99.90
11043;DHT22;5574;48.786;10.120;2022-11-20T12:06:33;7.90;99.90
11043;DHT22;5574;48.786;10.120;2022-11-20T12:09:03;7.90;99.90
11043;DHT22;5574;48.786;10.120;2022-11-20T12:11:34;8.00;99.90
11043;DHT22;5574;48.786;10.120;2022-11-20T12:14:09;8.10;99.90
11043;DHT22;5574;48.786;10.120;2022-11-20T12:16:38;8.10;99.90
11043;DHT22;5574;48.786;10.120;2022-11-20T12:19:09;8.10;99.90
11043;DHT22;5574;48.786;10.120;2022-11-20T12:21:45;8.00;99.90
11043;DHT22;5574;48.786;10.120;2022-11-20T12:24:30;7.90;99.90
11043;DHT22;5574;48.786;10.120;2022-11-20T12:27:05;7.90;99.90
11043;DHT22;5574;48.786;10.120;2022-11-20T12:29:43;8.00;99.90
11043;DHT22;5574;48.786;10.120;2022-11-20T12:32:34;8.00;99.90
11043;DHT22;5574;48.786;10.120;2022-11-20T12:35:14;7.90;99.90
11043;DHT22;5574;48.786;10.120;2022-11-20T12:37:49;7.90;99.90
11043;DHT22;5574;48.786;10.120;2022-11-20T12:40:28;7.90;99.90
11043;DHT22;5574;48.786;10.120;2022-11-20T12:43:03;7.90;99.90
11043;DHT22;5574;48.786;10.120;2022-11-20T12:46:09;7.90;99.90
11043;DHT22;5574;48.786;10.120;2022-11-20T12:49:08;8.00;99.90
11043;DHT22;5574;48.786;10.120;2022-11-20T12:52:03;8.00;99.90
11043;DHT22;5574;48.786;10.120;2022-11-20T12:57:38;8.40;99.90
11043;DHT22;5574;48.786;10.120;2022-11-20T13:00:10;8.50;99.90
11043;DHT22;5574;48.786;10.120;2022-11-20T13:02:51;8.50;99.90
11043;DHT22;5574;48.786;10.120;2022-11-20T13:05:27;8.50;99.90
11043;DHT22;5574;48.786;10.120;2022-11-20T13:07:58;8.50;99.90
11043;DHT22;5574;48.786;10.120;2022-11-20T13:10:33;8.50;99.90
11043;DHT22;5574;48.786;10.120;2022-11-20T13:13:04;8.50;99.90
11043;DHT22;5574;48.786;10.120;2022-11-20T13:15:47;8.50;99.90
11043;DHT22;5574;48.786;10.120;2022-11-20T13:18:17;8.50;99.90
11043;DHT22;5574;48.786;10.120;2022-11-20T13:20:45;8.60;99.90
11043;DHT22;5574;48.786;10.120;2022-11-20T13:23:23;8.60;99.90
11043;DHT22;5574;48.786;10.120;2022-11-20T13:26:03;8.50;99.90
11043;DHT22;5574;48.786;10.120;2022-11-20T13:28:30;8.50;99.90
11043;DHT22;5574;48.786;10.120;2022-11-20T13:30:58;8.50;99.90
11043;DHT22;5574;48.786;10.120;2022-11-20T13:33:28;8.50;99.90
11043;DHT22;5574;48.786;10.120;2022-11-20T13:35:57;8.50;99.90
11043;DHT22;5574;48.786;10.120;2022-11-20T13:38:24;8.60;99.90
11043;DHT22;5574;48.786;10.120;2022-11-20T13:40:54;8.70;99.90
11043;DHT22;5574;48.786;10.120;2022-11-20T13:43:32;8.70;99.90
11043;DHT22;5574;48.786;10.120;2022-11-20T13:46:01;8.70;99.90
11043;DHT22;5574;48.786;10.120;2022-11-20T13:48:31;8.70;99.90
11043;DHT22;5574;48.786;10.120;2022-11-20T13:51:11;8.60;99.90
11043;DHT22;5574;48.786;10.120;2022-11-20T13:56:56;8.50;99.90
11043;DHT22;5574;48.786;10.120;2022-11-20T13:59:39;8.40;99.90
11043;DHT22;5574;48.786;10.120;2022-11-20T14:02:11;8.50;99.90
11043;DHT22;5574;48.786;10.120;2022-11-20T14:04:43;8.40;99.90
11043;DHT22;5574;48.786;10.120;2022-11-20T14:07:11;8.30;99.90
11043;DHT22;5574;48.786;10.120;2022-11-20T14:09:38;8.40;99.90
11043;DHT22;5574;48.786;10.120;2022-11-20T14:12:16;8.30;99.90
11043;DHT22;5574;48.786;10.120;2022-11-20T14:14:49;8.30;99.90
11043;DHT22;5574;48.786;10.120;2022-11-20T14:17:19;8.40;99.90
11043;DHT22;5574;48.786;10.120;2022-11-20T14:19:47;8.50;99.90
11043;DHT22;5574;48.786;10.120;2022-11-20T14:22:19;8.50;99.90
11043;DHT22;5574;48.786;10.120;2022-11-20T14:24:47;8.50;99.90
11043;DHT22;5574;48.786;10.120;2022-11-20T14:27:17;8.40;99.90
11043;DHT22;5574;48.786;10.120;2022-11-20T14:29:46;8.40;99.90
11043;DHT22;5574;48.786;10.120;2022-11-20T14:32:16;8.40;99.90
11043;DHT22;5574;48.786;10.120;2022-11-20T14:34:45;8.40;99.90
11043;DHT22;5574;48.786;10.120;2022-11-20T14:37:19;8.40;99.90
11043;DHT22;5574;48.786;10.120;2022-11-20T14:39:49;8.40;99.90
11043;DHT22;5574;48.786;10.120;2022-11-20T14:42:19;8.40;99.90
11043;DHT22;5574;48.786;10.120;2022-11-20T14:44:47;8.30;99.90
11043;DHT22;5574;48.786;10.120;2022-11-20T14:47:18;8.20;99.90
11043;DHT22;5574;48.786;10.120;2022-11-20T14:49:45;8.00;99.90
11043;DHT22;5574;48.786;10.120;2022-11-20T14:52:15;7.90;99.90
11043;DHT22;5574;48.786;10.120;2022-11-20T14:54:47;7.80;99.90
11043;DHT22;5574;48.786;10.120;2022-11-20T14:57:24;7.70;99.90
11043;DHT22;5574;48.786;10.120;2022-11-20T14:59:51;7.70;99.90
11043;DHT22;5574;48.786;10.120;2022-11-20T15:02:18;7.60;99.90
11043;DHT22;5574;48.786;10.120;2022-11-20T15:04:46;7.60;99.90
11043;DHT22;5574;48.786;10.120;2022-11-20T15:07:23;7.60;99.90
11043;DHT22;5574;48.786;10.120;2022-11-20T15:09:59;7.60;99.90
11043;DHT22;5574;48.786;10.120;2022-11-20T15:12:29;7.60;99.90
11043;DHT22;5574;48.786;10.120;2022-11-20T15:14:56;7.50;99.90
11043;DHT22;5574;48.786;10.120;2022-11-20T15:17:23;7.50;99.90
11043;DHT22;5574;48.786;10.120;2022-11-20T15:19:50;7.50;99.90
11043;DHT22;5574;48.786;10.120;2022-11-20T15:22:17;7.50;99.90
11043;DHT22;5574;48.786;10.120;2022-11-20T15:24:44;7.40;99.90
11043;DHT22;5574;48.786;10.120;2022-11-20T15:27:11;7.40;99.90
11043;DHT22;5574;48.786;10.120;2022-11-20T15:29:40;7.30;99.90
11043;DHT22;5574;48.786;10.120;2022-11-20T15:32:08;7.30;99.90
11043;DHT22;5574;48.786;10.120;2022-11-20T15:34:34;7.30;99.90
11043;DHT22;5574;48.786;10.120;2022-11-20T15:37:01;7.30;99.90
11043;DHT22;5574;48.786;10.120;2022-11-20T15:39:28;7.20;99.90
11043;DHT22;5574;48.786;10.120;2022-11-20T15:41:54;7.20;99.90
11043;DHT22;5574;48.786;10.120;2022-11-20T15:44:21;7.10;99.90
11043;DHT22;5574;48.786;10.120;2022-11-20T15:46:49;7.20;99.90
11043;DHT22;5574;48.786;10.120;2022-11-20T15:49:17;7.20;99.90
11043;DHT22;5574;48.786;10.120;2022-11-20T15:51:48;7.20;99.90
11043;DHT22;5574;48.786;10.120;2022-11-20T15:54:17;7.20;99.90
11043;DHT22;5574;48.786;10.120;2022-11-20T15:56:45;7.20;99.90
11043;DHT22;5574;48.786;10.120;2022-11-20T15:59:12;7.20;99.90
11043;DHT22;5574;48.786;10.120;2022-11-20T16:01:40;7.20;99.90
11043;DHT22;5574;48.786;10.120;2022-11-20T16:04:10;7.10;99.90
11043;DHT22;5574;48.786;10.120;2022-11-20T16:06:37;7.10;99.90
11043;DHT22;5574;48.786;10.120;2022-11-20T16:09:04;7.20;99.90